sensor_id;sensor_type;location;lat;lon;timestamp;P1;durP1;ratioP1;P2;durP2;ratioP2
71773;SDS011;59607;52.130;5.430;2023-05-09T00:02:23;48.47;;;22.63;;
71773;SDS011;59607;52.130;5.430;2023-05-09T00:04:57;43.30;;;20.77;;
71773;SDS011;59607;52.130;5.430;2023-05-09T00:07:24;48.97;;;21.65;;
71773;SDS011;59607;52.130;5.430;2023-05-09T00:10:00;46.08;;;22.30;;
71773;SDS011;59607;52.130;5.430;2023-05-09T00:12:27;46.83;;;22.10;;
71773;SDS011;59607;52.130;5.430;2023-05-09T00:14:53;44.60;;;21.67;;
71773;SDS011;59607;52.130;5.430;2023-05-09T00:17:28;43.55;;;21.88;;
71773;SDS011;59607;52.130;5.430;2023-05-09T00:19:59;44.60;;;20.83;;
71773;SDS011;59607;52.130;5.430;2023-05-09T00:22:26;46.50;;;21.48;;
71773;SDS011;59607;52.130;5.430;2023-05-09T00:24:53;44.47;;;21.43;;
71773;SDS011;59607;52.130;5.430;2023-05-09T00:27:19;44.08;;;21.63;;
71773;SDS011;59607;52.130;5.430;2023-05-09T00:29:51;48.35;;;21.83;;
71773;SDS011;59607;52.130;5.430;2023-05-09T00:32:18;46.58;;;22.20;;
71773;SDS011;59607;52.130;5.430;2023-05-09T00:34:49;47.40;;;22.13;;
71773;SDS011;59607;52.130;5.430;2023-05-09T00:37:18;47.43;;;22.33;;
71773;SDS011;59607;52.130;5.430;2023-05-09T00:39:44;42.03;;;21.50;;
71773;SDS011;59607;52.130;5.430;2023-05-09T00:42:13;49.00;;;22.27;;
71773;SDS011;59607;52.130;5.430;2023-05-09T00:44:42;49.70;;;22.33;;
71773;SDS011;59607;52.130;5.430;2023-05-09T00:47:08;43.05;;;21.38;;
71773;SDS011;59607;52.130;5.430;2023-05-09T00:49:38;41.13;;;20.33;;
71773;SDS011;59607;52.130;5.430;2023-05-09T00:52:06;39.05;;;20.88;;
71773;SDS011;59607;52.130;5.430;2023-05-09T00:54:33;46.22;;;21.35;;
71773;SDS011;59607;52.130;5.430;2023-05-09T00:57:07;42.97;;;21.20;;
71773;SDS011;59607;52.130;5.430;2023-05-09T00:59:34;42.25;;;20.73;;
71773;SDS011;59607;52.130;5.430;2023-05-09T01:02:19;44.00;;;21.13;;
71773;SDS011;59607;52.130;5.430;2023-05-09T01:04:51;43.35;;;22.13;;
71773;SDS011;59607;52.130;5.430;2023-05-09T01:07:37;41.17;;;21.80;;
71773;SDS011;59607;52.130;5.430;2023-05-09T01:16:34;49.40;;;22.10;;
71773;SDS011;59607;52.130;5.430;2023-05-09T01:22:25;42.50;;;20.98;;
71773;SDS011;59607;52.130;5.430;2023-05-09T01:30:54;44.63;;;22.13;;
71773;SDS011;59607;52.130;5.430;2023-05-09T01:33:23;49.78;;;23.83;;
71773;SDS011;59607;52.130;5.430;2023-05-09T01:35:56;44.78;;;21.30;;
71773;SDS011;59607;52.130;5.430;2023-05-09T01:38:30;42.08;;;22.08;;
71773;SDS011;59607;52.130;5.430;2023-05-09T01:40:57;48.38;;;23.08;;
71773;SDS011;59607;52.130;5.430;2023-05-09T01:43:44;46.47;;;21.57;;
71773;SDS011;59607;52.130;5.430;2023-05-09T01:46:13;48.88;;;22.58;;
71773;SDS011;59607;52.130;5.430;2023-05-09T01:48:43;46.85;;;21.48;;
71773;SDS011;59607;52.130;5.430;2023-05-09T01:51:12;45.15;;;22.55;;
71773;SDS011;59607;52.130;5.430;2023-05-09T01:53:44;49.22;;;22.23;;
71773;SDS011;59607;52.130;5.430;2023-05-09T01:56:21;47.60;;;21.53;;
71773;SDS011;59607;52.130;5.430;2023-05-09T01:58:50;49.63;;;21.95;;
71773;SDS011;59607;52.130;5.430;2023-05-09T02:01:24;48.17;;;22.52;;
71773;SDS011;59607;52.130;5.430;2023-05-09T02:03:51;49.30;;;23.33;;
71773;SDS011;59607;52.130;5.430;2023-05-09T02:06:37;50.00;;;23.58;;
71773;SDS011;59607;52.130;5.430;2023-05-09T02:09:11;46.20;;;21.17;;
71773;SDS011;59607;52.130;5.430;2023-05-09T02:11:38;45.20;;;21.50;;
71773;SDS011;59607;52.130;5.430;2023-05-09T02:14:05;48.90;;;23.05;;
71773;SDS011;59607;52.130;5.430;2023-05-09T02:16:31;49.20;;;23.48;;
71773;SDS011;59607;52.130;5.430;2023-05-09T02:18:58;49.45;;;23.20;;
71773;SDS011;59607;52.130;5.430;2023-05-09T02:21:25;45.13;;;21.60;;
71773;SDS011;59607;52.130;5.430;2023-05-09T02:23:57;50.33;;;23.15;;
71773;SDS011;59607;52.130;5.430;2023-05-09T02:26:24;49.17;;;22.90;;
71773;SDS011;59607;52.130;5.430;2023-05-09T02:28:54;46.00;;;22.50;;
71773;SDS011;59607;52.130;5.430;2023-05-09T02:31:25;44.78;;;22.08;;
71773;SDS011;59607;52.130;5.430;2023-05-09T02:34:08;53.43;;;22.83;;
71773;SDS011;59607;52.130;5.430;2023-05-09T02:36:38;43.35;;;21.85;;
71773;SDS011;59607;52.130;5.430;2023-05-09T02:39:08;50.90;;;22.30;;
71773;SDS011;59607;52.130;5.430;2023-05-09T02:41:38;44.28;;;21.35;;
71773;SDS011;59607;52.130;5.430;2023-05-09T02:44:12;51.67;;;23.83;;
71773;SDS011;59607;52.130;5.430;2023-05-09T02:46:39;47.70;;;22.17;;
71773;SDS011;59607;52.130;5.430;2023-05-09T02:49:11;48.88;;;22.10;;
71773;SDS011;59607;52.130;5.430;2023-05-09T02:51:56;43.83;;;21.75;;
71773;SDS011;59607;52.130;5.430;2023-05-09T02:54:25;47.80;;;22.77;;
71773;SDS011;59607;52.130;5.430;2023-05-09T02:56:55;49.35;;;22.80;;
71773;SDS011;59607;52.130;5.430;2023-05-09T02:59:22;48.27;;;22.43;;
71773;SDS011;59607;52.130;5.430;2023-05-09T03:02:02;46.83;;;22.30;;
71773;SDS011;59607;52.130;5.430;2023-05-09T03:04:29;48.03;;;22.45;;
71773;SDS011;59607;52.130;5.430;2023-05-09T03:06:55;47.35;;;23.33;;
71773;SDS011;59607;52.130;5.430;2023-05-09T03:09:24;51.42;;;23.08;;
71773;SDS011;59607;52.130;5.430;2023-05-09T03:11:51;46.10;;;22.80;;
71773;SDS011;59607;52.130;5.430;2023-05-09T03:14:24;47.00;;;22.52;;
71773;SDS011;59607;52.130;5.430;2023-05-09T03:16:51;54.45;;;22.35;;
71773;SDS011;59607;52.130;5.430;2023-05-09T03:19:18;48.63;;;22.90;;
71773;SDS011;59607;52.130;5.430;2023-05-09T03:21:50;47.63;;;23.45;;
71773;SDS011;59607;52.130;5.430;2023-05-09T03:24:20;52.07;;;23.07;;
71773;SDS011;59607;52.130;5.430;2023-05-09T03:26:52;47.10;;;22.23;;
71773;SDS011;59607;52.130;5.430;2023-05-09T03:29:19;49.47;;;23.38;;
71773;SDS011;59607;52.130;5.430;2023-05-09T03:31:50;48.05;;;21.70;;
71773;SDS011;59607;52.130;5.430;2023-05-09T03:34:21;45.85;;;21.77;;
71773;SDS011;59607;52.130;5.430;2023-05-09T03:36:47;45.43;;;22.83;;
71773;SDS011;59607;52.130;5.430;2023-05-09T03:39:19;48.67;;;22.67;;
71773;SDS011;59607;52.130;5.430;2023-05-09T03:41:45;48.97;;;22.50;;
71773;SDS011;59607;52.130;5.430;2023-05-09T03:44:14;44.17;;;22.73;;
71773;SDS011;59607;52.130;5.430;2023-05-09T03:46:44;46.40;;;22.80;;
71773;SDS011;59607;52.130;5.430;2023-05-09T03:49:10;42.93;;;21.27;;
71773;SDS011;59607;52.130;5.430;2023-05-09T03:51:44;41.65;;;21.75;;
71773;SDS011;59607;52.130;5.430;2023-05-09T03:54:11;42.10;;;21.60;;
71773;SDS011;59607;52.130;5.430;2023-05-09T03:56:37;41.10;;;20.80;;
71773;SDS011;59607;52.130;5.430;2023-05-09T03:59:04;41.83;;;21.38;;
71773;SDS011;59607;52.130;5.430;2023-05-09T04:01:31;37.53;;;19.03;;
71773;SDS011;59607;52.130;5.430;2023-05-09T04:03:58;43.83;;;21.20;;
71773;SDS011;59607;52.130;5.430;2023-05-09T04:06:28;37.35;;;20.13;;
71773;SDS011;59607;52.130;5.430;2023-05-09T04:08:55;43.10;;;21.08;;
71773;SDS011;59607;52.130;5.430;2023-05-09T04:11:21;37.72;;;20.15;;
71773;SDS011;59607;52.130;5.430;2023-05-09T04:13:48;37.43;;;18.83;;
71773;SDS011;59607;52.130;5.430;2023-05-09T04:16:14;41.08;;;19.80;;
71773;SDS011;59607;52.130;5.430;2023-05-09T04:18:41;39.28;;;19.70;;
71773;SDS011;59607;52.130;5.430;2023-05-09T04:21:07;40.40;;;18.90;;
71773;SDS011;59607;52.130;5.430;2023-05-09T04:23:39;38.75;;;18.95;;
71773;SDS011;59607;52.130;5.430;2023-05-09T04:26:09;36.03;;;18.47;;
71773;SDS011;59607;52.130;5.430;2023-05-09T04:28:47;37.20;;;19.08;;
71773;SDS011;59607;52.130;5.430;2023-05-09T04:31:14;36.08;;;18.20;;
71773;SDS011;59607;52.130;5.430;2023-05-09T04:33:50;35.90;;;18.58;;
71773;SDS011;59607;52.130;5.430;2023-05-09T04:36:17;33.65;;;17.90;;
71773;SDS011;59607;52.130;5.430;2023-05-09T04:38:46;34.13;;;17.87;;
71773;SDS011;59607;52.130;5.430;2023-05-09T04:41:12;32.17;;;17.05;;
71773;SDS011;59607;52.130;5.430;2023-05-09T04:43:39;31.85;;;17.02;;
71773;SDS011;59607;52.130;5.430;2023-05-09T04:46:05;30.73;;;16.70;;
71773;SDS011;59607;52.130;5.430;2023-05-09T04:48:38;29.67;;;17.35;;
71773;SDS011;59607;52.130;5.430;2023-05-09T04:51:04;30.10;;;16.57;;
71773;SDS011;59607;52.130;5.430;2023-05-09T04:53:31;30.92;;;16.45;;
71773;SDS011;59607;52.130;5.430;2023-05-09T04:56:07;30.10;;;16.35;;
71773;SDS011;59607;52.130;5.430;2023-05-09T04:58:33;32.90;;;17.15;;
71773;SDS011;59607;52.130;5.430;2023-05-09T05:01:06;29.88;;;17.30;;
71773;SDS011;59607;52.130;5.430;2023-05-09T05:03:32;33.80;;;14.80;;
71773;SDS011;59607;52.130;5.430;2023-05-09T05:06:09;26.90;;;14.55;;
71773;SDS011;59607;52.130;5.430;2023-05-09T05:08:35;27.83;;;15.20;;
71773;SDS011;59607;52.130;5.430;2023-05-09T05:11:12;24.48;;;14.73;;
71773;SDS011;59607;52.130;5.430;2023-05-09T05:13:39;31.42;;;14.68;;
71773;SDS011;59607;52.130;5.430;2023-05-09T05:16:12;22.80;;;14.23;;
71773;SDS011;59607;52.130;5.430;2023-05-09T05:18:39;25.38;;;14.10;;
71773;SDS011;59607;52.130;5.430;2023-05-09T05:21:08;20.90;;;13.90;;
71773;SDS011;59607;52.130;5.430;2023-05-09T05:23:38;28.50;;;14.55;;
71773;SDS011;59607;52.130;5.430;2023-05-09T05:26:05;22.08;;;13.68;;
71773;SDS011;59607;52.130;5.430;2023-05-09T05:28:31;21.50;;;13.10;;
71773;SDS011;59607;52.130;5.430;2023-05-09T05:30:58;20.73;;;12.95;;
71773;SDS011;59607;52.130;5.430;2023-05-09T05:33:28;18.27;;;12.77;;
71773;SDS011;59607;52.130;5.430;2023-05-09T05:35:54;20.42;;;12.40;;
71773;SDS011;59607;52.130;5.430;2023-05-09T05:38:21;23.38;;;12.98;;
71773;SDS011;59607;52.130;5.430;2023-05-09T05:40:50;19.90;;;11.70;;
71773;SDS011;59607;52.130;5.430;2023-05-09T05:43:17;20.17;;;12.27;;
71773;SDS011;59607;52.130;5.430;2023-05-09T05:45:46;18.13;;;11.93;;
71773;SDS011;59607;52.130;5.430;2023-05-09T05:48:15;17.77;;;11.35;;
71773;SDS011;59607;52.130;5.430;2023-05-09T05:50:41;16.58;;;11.40;;
71773;SDS011;59607;52.130;5.430;2023-05-09T05:53:22;19.37;;;10.53;;
71773;SDS011;59607;52.130;5.430;2023-05-09T05:56:02;18.38;;;11.30;;
71773;SDS011;59607;52.130;5.430;2023-05-09T05:58:37;14.75;;;11.13;;
71773;SDS011;59607;52.130;5.430;2023-05-09T06:01:04;17.92;;;11.00;;
71773;SDS011;59607;52.130;5.430;2023-05-09T06:03:36;15.75;;;10.27;;
71773;SDS011;59607;52.130;5.430;2023-05-09T06:06:05;15.40;;;11.23;;
71773;SDS011;59607;52.130;5.430;2023-05-09T06:08:32;17.42;;;10.65;;
71773;SDS011;59607;52.130;5.430;2023-05-09T06:11:00;16.23;;;10.10;;
71773;SDS011;59607;52.130;5.430;2023-05-09T06:13:34;14.10;;;10.50;;
71773;SDS011;59607;52.130;5.430;2023-05-09T06:16:03;18.13;;;10.50;;
71773;SDS011;59607;52.130;5.430;2023-05-09T06:18:46;13.13;;;9.67;;
71773;SDS011;59607;52.130;5.430;2023-05-09T06:21:21;16.98;;;11.35;;
71773;SDS011;59607;52.130;5.430;2023-05-09T06:23:51;14.52;;;9.70;;
71773;SDS011;59607;52.130;5.430;2023-05-09T06:26:21;12.70;;;9.93;;
71773;SDS011;59607;52.130;5.430;2023-05-09T06:28:47;17.40;;;9.82;;
71773;SDS011;59607;52.130;5.430;2023-05-09T06:31:23;15.70;;;10.10;;
71773;SDS011;59607;52.130;5.430;2023-05-09T06:33:52;14.18;;;10.07;;
71773;SDS011;59607;52.130;5.430;2023-05-09T06:36:18;17.33;;;10.40;;
71773;SDS011;59607;52.130;5.430;2023-05-09T06:38:45;16.65;;;10.30;;
71773;SDS011;59607;52.130;5.430;2023-05-09T06:41:14;18.05;;;11.15;;
71773;SDS011;59607;52.130;5.430;2023-05-09T06:43:45;16.97;;;10.73;;
71773;SDS011;59607;52.130;5.430;2023-05-09T06:46:13;15.52;;;10.35;;
71773;SDS011;59607;52.130;5.430;2023-05-09T06:48:53;17.40;;;11.27;;
71773;SDS011;59607;52.130;5.430;2023-05-09T06:51:22;15.23;;;10.32;;
71773;SDS011;59607;52.130;5.430;2023-05-09T06:53:49;13.32;;;10.30;;
71773;SDS011;59607;52.130;5.430;2023-05-09T06:56:16;15.30;;;10.30;;
71773;SDS011;59607;52.130;5.430;2023-05-09T06:58:47;19.13;;;11.50;;
71773;SDS011;59607;52.130;5.430;2023-05-09T07:01:16;16.15;;;11.35;;
71773;SDS011;59607;52.130;5.430;2023-05-09T07:03:43;16.25;;;11.20;;
71773;SDS011;59607;52.130;5.430;2023-05-09T07:06:24;15.15;;;10.55;;
71773;SDS011;59607;52.130;5.430;2023-05-09T07:08:52;15.63;;;10.87;;
71773;SDS011;59607;52.130;5.430;2023-05-09T07:11:19;16.50;;;11.30;;
71773;SDS011;59607;52.130;5.430;2023-05-09T07:13:46;13.18;;;10.68;;
71773;SDS011;59607;52.130;5.430;2023-05-09T07:16:16;15.32;;;11.25;;
71773;SDS011;59607;52.130;5.430;2023-05-09T07:18:48;15.15;;;10.57;;
71773;SDS011;59607;52.130;5.430;2023-05-09T07:21:18;13.30;;;11.07;;
71773;SDS011;59607;52.130;5.430;2023-05-09T07:23:45;14.68;;;11.10;;
71773;SDS011;59607;52.130;5.430;2023-05-09T07:26:12;12.95;;;10.18;;
71773;SDS011;59607;52.130;5.430;2023-05-09T07:28:38;14.75;;;10.80;;
71773;SDS011;59607;52.130;5.430;2023-05-09T07:31:05;15.98;;;10.65;;
71773;SDS011;59607;52.130;5.430;2023-05-09T07:33:31;13.07;;;11.03;;
71773;SDS011;59607;52.130;5.430;2023-05-09T07:35:58;12.63;;;10.52;;
71773;SDS011;59607;52.130;5.430;2023-05-09T07:38:28;15.23;;;11.02;;
71773;SDS011;59607;52.130;5.430;2023-05-09T07:40:54;16.02;;;10.52;;
71773;SDS011;59607;52.130;5.430;2023-05-09T07:43:21;13.20;;;9.90;;
71773;SDS011;59607;52.130;5.430;2023-05-09T07:45:47;15.80;;;11.10;;
71773;SDS011;59607;52.130;5.430;2023-05-09T07:48:20;17.17;;;11.30;;
71773;SDS011;59607;52.130;5.430;2023-05-09T07:50:46;16.08;;;11.25;;
71773;SDS011;59607;52.130;5.430;2023-05-09T07:53:18;14.80;;;10.85;;
71773;SDS011;59607;52.130;5.430;2023-05-09T07:55:48;12.80;;;10.50;;
71773;SDS011;59607;52.130;5.430;2023-05-09T07:58:15;14.87;;;10.53;;
71773;SDS011;59607;52.130;5.430;2023-05-09T08:00:47;12.50;;;10.80;;
71773;SDS011;59607;52.130;5.430;2023-05-09T08:03:13;15.48;;;10.65;;
71773;SDS011;59607;52.130;5.430;2023-05-09T08:05:40;14.80;;;10.18;;
71773;SDS011;59607;52.130;5.430;2023-05-09T08:08:09;11.77;;;9.25;;
71773;SDS011;59607;52.130;5.430;2023-05-09T08:10:36;11.50;;;9.43;;
71773;SDS011;59607;52.130;5.430;2023-05-09T08:13:05;11.35;;;9.85;;
71773;SDS011;59607;52.130;5.430;2023-05-09T08:15:44;12.82;;;10.02;;
71773;SDS011;59607;52.130;5.430;2023-05-09T08:18:15;11.95;;;10.43;;
71773;SDS011;59607;52.130;5.430;2023-05-09T08:20:42;13.80;;;9.40;;
71773;SDS011;59607;52.130;5.430;2023-05-09T08:23:08;14.60;;;9.47;;
71773;SDS011;59607;52.130;5.430;2023-05-09T08:25:41;13.10;;;9.50;;
71773;SDS011;59607;52.130;5.430;2023-05-09T08:28:08;10.43;;;9.38;;
71773;SDS011;59607;52.130;5.430;2023-05-09T08:30:50;10.35;;;8.77;;
71773;SDS011;59607;52.130;5.430;2023-05-09T08:33:26;10.40;;;9.38;;
71773;SDS011;59607;52.130;5.430;2023-05-09T08:35:52;10.67;;;9.57;;
71773;SDS011;59607;52.130;5.430;2023-05-09T08:38:23;10.38;;;9.32;;
71773;SDS011;59607;52.130;5.430;2023-05-09T08:40:51;9.82;;;8.60;;
71773;SDS011;59607;52.130;5.430;2023-05-09T08:43:18;10.57;;;9.10;;
71773;SDS011;59607;52.130;5.430;2023-05-09T08:45:53;10.85;;;9.48;;
71773;SDS011;59607;52.130;5.430;2023-05-09T08:48:27;9.67;;;8.30;;
71773;SDS011;59607;52.130;5.430;2023-05-09T08:50:54;8.90;;;8.07;;
71773;SDS011;59607;52.130;5.430;2023-05-09T08:53:21;8.45;;;7.55;;
71773;SDS011;59607;52.130;5.430;2023-05-09T08:55:50;8.02;;;7.25;;
71773;SDS011;59607;52.130;5.430;2023-05-09T08:58:18;7.20;;;6.57;;
71773;SDS011;59607;52.130;5.430;2023-05-09T09:00:45;9.07;;;7.13;;
71773;SDS011;59607;52.130;5.430;2023-05-09T09:03:14;7.38;;;6.78;;
71773;SDS011;59607;52.130;5.430;2023-05-09T09:05:42;7.75;;;6.63;;
71773;SDS011;59607;52.130;5.430;2023-05-09T09:08:10;6.38;;;5.78;;
71773;SDS011;59607;52.130;5.430;2023-05-09T09:10:40;6.55;;;5.95;;
71773;SDS011;59607;52.130;5.430;2023-05-09T09:13:12;6.40;;;5.57;;
71773;SDS011;59607;52.130;5.430;2023-05-09T09:15:47;6.25;;;5.68;;
71773;SDS011;59607;52.130;5.430;2023-05-09T09:18:15;6.35;;;5.75;;
71773;SDS011;59607;52.130;5.430;2023-05-09T09:20:51;6.05;;;5.55;;
71773;SDS011;59607;52.130;5.430;2023-05-09T09:23:26;5.90;;;5.40;;
71773;SDS011;59607;52.130;5.430;2023-05-09T09:25:59;5.47;;;4.97;;
71773;SDS011;59607;52.130;5.430;2023-05-09T09:28:34;6.07;;;5.60;;
71773;SDS011;59607;52.130;5.430;2023-05-09T09:31:01;5.38;;;4.95;;
71773;SDS011;59607;52.130;5.430;2023-05-09T09:33:34;5.95;;;5.35;;
71773;SDS011;59607;52.130;5.430;2023-05-09T09:36:04;5.47;;;4.97;;
71773;SDS011;59607;52.130;5.430;2023-05-09T09:38:30;5.80;;;5.27;;
71773;SDS011;59607;52.130;5.430;2023-05-09T09:41:08;5.85;;;5.45;;
71773;SDS011;59607;52.130;5.430;2023-05-09T09:43:44;5.95;;;5.43;;
71773;SDS011;59607;52.130;5.430;2023-05-09T09:46:11;5.80;;;5.20;;
71773;SDS011;59607;52.130;5.430;2023-05-09T09:48:47;6.00;;;5.10;;
71773;SDS011;59607;52.130;5.430;2023-05-09T09:51:20;5.10;;;4.63;;
71773;SDS011;59607;52.130;5.430;2023-05-09T09:53:48;5.38;;;4.45;;
71773;SDS011;59607;52.130;5.430;2023-05-09T09:56:14;5.03;;;4.63;;
71773;SDS011;59607;52.130;5.430;2023-05-09T09:58:41;5.07;;;4.68;;
71773;SDS011;59607;52.130;5.430;2023-05-09T10:01:13;5.68;;;5.18;;
71773;SDS011;59607;52.130;5.430;2023-05-09T10:03:42;4.77;;;4.30;;
71773;SDS011;59607;52.130;5.430;2023-05-09T10:06:15;4.68;;;4.13;;
71773;SDS011;59607;52.130;5.430;2023-05-09T10:08:43;4.78;;;4.38;;
71773;SDS011;59607;52.130;5.430;2023-05-09T10:11:14;6.15;;;4.45;;
71773;SDS011;59607;52.130;5.430;2023-05-09T10:13:43;5.20;;;4.65;;
71773;SDS011;59607;52.130;5.430;2023-05-09T10:16:17;5.03;;;4.47;;
71773;SDS011;59607;52.130;5.430;2023-05-09T10:19:01;7.90;;;4.78;;
71773;SDS011;59607;52.130;5.430;2023-05-09T10:21:29;4.82;;;4.45;;
71773;SDS011;59607;52.130;5.430;2023-05-09T10:23:56;4.78;;;4.35;;
71773;SDS011;59607;52.130;5.430;2023-05-09T10:26:28;4.97;;;4.57;;
71773;SDS011;59607;52.130;5.430;2023-05-09T10:29:18;4.80;;;4.50;;
71773;SDS011;59607;52.130;5.430;2023-05-09T10:31:49;5.05;;;4.65;;
71773;SDS011;59607;52.130;5.430;2023-05-09T10:34:24;5.22;;;4.72;;
71773;SDS011;59607;52.130;5.430;2023-05-09T10:36:57;5.80;;;4.10;;
71773;SDS011;59607;52.130;5.430;2023-05-09T10:39:28;4.78;;;4.28;;
71773;SDS011;59607;52.130;5.430;2023-05-09T10:41:58;5.23;;;4.80;;
71773;SDS011;59607;52.130;5.430;2023-05-09T10:44:25;5.40;;;4.90;;
71773;SDS011;59607;52.130;5.430;2023-05-09T10:46:58;4.88;;;4.50;;
71773;SDS011;59607;52.130;5.430;2023-05-09T10:49:25;5.40;;;4.75;;
71773;SDS011;59607;52.130;5.430;2023-05-09T10:51:53;4.65;;;4.35;;
71773;SDS011;59607;52.130;5.430;2023-05-09T10:54:29;5.77;;;5.20;;
71773;SDS011;59607;52.130;5.430;2023-05-09T10:56:59;6.28;;;5.53;;
71773;SDS011;59607;52.130;5.430;2023-05-09T11:02:12;5.15;;;4.75;;
71773;SDS011;59607;52.130;5.430;2023-05-09T11:04:41;5.10;;;4.60;;
71773;SDS011;59607;52.130;5.430;2023-05-09T11:07:25;4.53;;;4.23;;
71773;SDS011;59607;52.130;5.430;2023-05-09T11:10:14;4.72;;;4.35;;
71773;SDS011;59607;52.130;5.430;2023-05-09T11:15:23;5.00;;;4.50;;
71773;SDS011;59607;52.130;5.430;2023-05-09T11:17:50;4.80;;;4.40;;
71773;SDS011;59607;52.130;5.430;2023-05-09T11:20:43;6.87;;;4.40;;
71773;SDS011;59607;52.130;5.430;2023-05-09T11:23:19;5.10;;;4.60;;
71773;SDS011;59607;52.130;5.430;2023-05-09T11:25:47;4.60;;;4.13;;
71773;SDS011;59607;52.130;5.430;2023-05-09T11:28:26;4.93;;;3.70;;
71773;SDS011;59607;52.130;5.430;2023-05-09T11:31:16;4.20;;;3.85;;
71773;SDS011;59607;52.130;5.430;2023-05-09T11:33:45;6.47;;;4.70;;
71773;SDS011;59607;52.130;5.430;2023-05-09T11:36:26;5.00;;;4.50;;
71773;SDS011;59607;52.130;5.430;2023-05-09T11:39:02;4.75;;;4.35;;
71773;SDS011;59607;52.130;5.430;2023-05-09T11:41:43;5.13;;;4.20;;
71773;SDS011;59607;52.130;5.430;2023-05-09T11:44:29;4.30;;;3.90;;
71773;SDS011;59607;52.130;5.430;2023-05-09T11:46:58;5.30;;;4.90;;
71773;SDS011;59607;52.130;5.430;2023-05-09T11:49:47;4.90;;;4.45;;
71773;SDS011;59607;52.130;5.430;2023-05-09T11:52:19;6.35;;;5.00;;
71773;SDS011;59607;52.130;5.430;2023-05-09T11:54:54;5.03;;;4.63;;
71773;SDS011;59607;52.130;5.430;2023-05-09T11:57:20;5.47;;;4.97;;
71773;SDS011;59607;52.130;5.430;2023-05-09T11:59:47;5.30;;;4.80;;
71773;SDS011;59607;52.130;5.430;2023-05-09T12:02:18;5.45;;;5.03;;
71773;SDS011;59607;52.130;5.430;2023-05-09T12:04:47;5.18;;;4.80;;
71773;SDS011;59607;52.130;5.430;2023-05-09T12:07:25;9.40;;;4.88;;
71773;SDS011;59607;52.130;5.430;2023-05-09T12:09:51;5.30;;;4.80;;
71773;SDS011;59607;52.130;5.430;2023-05-09T12:12:20;5.13;;;4.73;;
71773;SDS011;59607;52.130;5.430;2023-05-09T12:14:51;4.80;;;4.22;;
71773;SDS011;59607;52.130;5.430;2023-05-09T12:17:18;4.78;;;3.92;;
71773;SDS011;59607;52.130;5.430;2023-05-09T12:19:47;4.68;;;4.28;;
71773;SDS011;59607;52.130;5.430;2023-05-09T12:22:14;5.07;;;4.68;;
71773;SDS011;59607;52.130;5.430;2023-05-09T12:24:40;4.77;;;4.37;;
71773;SDS011;59607;52.130;5.430;2023-05-09T12:27:24;4.57;;;4.18;;
71773;SDS011;59607;52.130;5.430;2023-05-09T12:29:54;4.47;;;4.07;;
71773;SDS011;59607;52.130;5.430;2023-05-09T12:32:20;5.97;;;4.75;;
71773;SDS011;59607;52.130;5.430;2023-05-09T12:34:47;4.57;;;4.07;;
71773;SDS011;59607;52.130;5.430;2023-05-09T12:37:20;4.53;;;4.13;;
71773;SDS011;59607;52.130;5.430;2023-05-09T12:40:05;5.28;;;4.50;;
71773;SDS011;59607;52.130;5.430;2023-05-09T12:42:43;5.68;;;4.25;;
71773;SDS011;59607;52.130;5.430;2023-05-09T12:45:17;4.82;;;4.53;;
71773;SDS011;59607;52.130;5.430;2023-05-09T12:47:50;4.30;;;4.00;;
71773;SDS011;59607;52.130;5.430;2023-05-09T12:50:17;4.83;;;4.43;;
71773;SDS011;59607;52.130;5.430;2023-05-09T12:52:50;4.38;;;3.97;;
71773;SDS011;59607;52.130;5.430;2023-05-09T12:55:37;4.88;;;4.32;;
71773;SDS011;59607;52.130;5.430;2023-05-09T12:58:13;3.58;;;3.38;;
71773;SDS011;59607;52.130;5.430;2023-05-09T13:00:40;4.20;;;3.80;;
71773;SDS011;59607;52.130;5.430;2023-05-09T13:03:21;4.17;;;3.87;;
71773;SDS011;59607;52.130;5.430;2023-05-09T13:05:59;5.47;;;3.60;;
71773;SDS011;59607;52.130;5.430;2023-05-09T13:08:29;4.43;;;3.58;;
71773;SDS011;59607;52.130;5.430;2023-05-09T13:10:57;4.28;;;3.88;;
71773;SDS011;59607;52.130;5.430;2023-05-09T13:13:41;3.75;;;3.45;;
71773;SDS011;59607;52.130;5.430;2023-05-09T13:16:08;4.37;;;3.83;;
71773;SDS011;59607;52.130;5.430;2023-05-09T13:18:49;3.55;;;3.35;;
71773;SDS011;59607;52.130;5.430;2023-05-09T13:21:15;4.05;;;3.70;;
71773;SDS011;59607;52.130;5.430;2023-05-09T13:23:43;3.67;;;3.47;;
71773;SDS011;59607;52.130;5.430;2023-05-09T13:26:10;5.03;;;4.03;;
71773;SDS011;59607;52.130;5.430;2023-05-09T13:28:46;3.73;;;3.43;;
71773;SDS011;59607;52.130;5.430;2023-05-09T13:31:12;4.78;;;3.58;;
71773;SDS011;59607;52.130;5.430;2023-05-09T13:33:39;4.03;;;3.72;;
71773;SDS011;59607;52.130;5.430;2023-05-09T13:36:10;4.03;;;3.72;;
71773;SDS011;59607;52.130;5.430;2023-05-09T13:38:37;3.92;;;3.65;;
71773;SDS011;59607;52.130;5.430;2023-05-09T13:41:08;3.67;;;3.37;;
71773;SDS011;59607;52.130;5.430;2023-05-09T13:43:42;3.53;;;3.30;;
71773;SDS011;59607;52.130;5.430;2023-05-09T13:46:09;3.72;;;2.85;;
71773;SDS011;59607;52.130;5.430;2023-05-09T13:48:42;3.13;;;2.92;;
71773;SDS011;59607;52.130;5.430;2023-05-09T13:51:20;4.50;;;2.90;;
71773;SDS011;59607;52.130;5.430;2023-05-09T13:53:47;2.83;;;2.63;;
71773;SDS011;59607;52.130;5.430;2023-05-09T13:56:13;3.15;;;2.95;;
71773;SDS011;59607;52.130;5.430;2023-05-09T13:58:42;3.60;;;3.28;;
71773;SDS011;59607;52.130;5.430;2023-05-09T14:01:09;5.40;;;3.17;;
71773;SDS011;59607;52.130;5.430;2023-05-09T14:03:38;3.13;;;2.92;;
71773;SDS011;59607;52.130;5.430;2023-05-09T14:06:06;3.67;;;3.37;;
71773;SDS011;59607;52.130;5.430;2023-05-09T14:08:34;3.58;;;3.28;;
71773;SDS011;59607;52.130;5.430;2023-05-09T14:11:03;3.45;;;3.15;;
71773;SDS011;59607;52.130;5.430;2023-05-09T14:13:35;3.47;;;3.17;;
71773;SDS011;59607;52.130;5.430;2023-05-09T14:16:05;3.22;;;3.03;;
71773;SDS011;59607;52.130;5.430;2023-05-09T14:18:37;3.33;;;3.13;;
71773;SDS011;59607;52.130;5.430;2023-05-09T14:21:03;6.07;;;3.72;;
71773;SDS011;59607;52.130;5.430;2023-05-09T14:23:44;3.20;;;3.00;;
71773;SDS011;59607;52.130;5.430;2023-05-09T14:26:11;3.35;;;3.15;;
71773;SDS011;59607;52.130;5.430;2023-05-09T14:28:38;2.70;;;2.50;;
71773;SDS011;59607;52.130;5.430;2023-05-09T14:31:05;2.67;;;2.47;;
71773;SDS011;59607;52.130;5.430;2023-05-09T14:33:36;3.22;;;2.22;;
71773;SDS011;59607;52.130;5.430;2023-05-09T14:36:10;2.33;;;2.13;;
71773;SDS011;59607;52.130;5.430;2023-05-09T14:38:39;2.60;;;2.40;;
71773;SDS011;59607;52.130;5.430;2023-05-09T14:41:08;2.20;;;2.00;;
71773;SDS011;59607;52.130;5.430;2023-05-09T14:43:41;2.07;;;1.87;;
71773;SDS011;59607;52.130;5.430;2023-05-09T14:46:07;2.10;;;1.95;;
71773;SDS011;59607;52.130;5.430;2023-05-09T14:48:34;1.75;;;1.65;;
71773;SDS011;59607;52.130;5.430;2023-05-09T14:51:00;1.88;;;1.77;;
71773;SDS011;59607;52.130;5.430;2023-05-09T14:53:26;3.05;;;1.92;;
71773;SDS011;59607;52.130;5.430;2023-05-09T14:56:01;2.57;;;1.80;;
71773;SDS011;59607;52.130;5.430;2023-05-09T14:58:30;3.28;;;2.08;;
71773;SDS011;59607;52.130;5.430;2023-05-09T15:01:00;2.05;;;1.70;;
71773;SDS011;59607;52.130;5.430;2023-05-09T15:03:27;3.33;;;1.77;;
71773;SDS011;59607;52.130;5.430;2023-05-09T15:06:04;1.75;;;1.65;;
71773;SDS011;59607;52.130;5.430;2023-05-09T15:08:36;3.80;;;2.10;;
71773;SDS011;59607;52.130;5.430;2023-05-09T15:11:06;2.53;;;2.33;;
71773;SDS011;59607;52.130;5.430;2023-05-09T15:13:33;2.45;;;1.90;;
71773;SDS011;59607;52.130;5.430;2023-05-09T15:16:05;1.90;;;1.80;;